Time;durP1;ratioP1;P1;durP2;ratioP2;P2;SDS_P1;SDS_P2;PMS_P1;PMS_P2;Temp;Humidity;BMP_temperature;BMP_pressure;BME280_temperature;BME280_humidity;BME280_pressure;Samples;Min_cycle;Max_cycle;Signal;HPM_P1;HPM_P2
2023/07/22 00:00:57;;;;;;;6.60;1.87;;;;;;;;;;5042350;27;87649;-57
2023/07/22 00:03:26;;;;;;;2.50;1.63;;;;;;;;;;5043031;28;89721;-58
2023/07/22 00:06:05;;;;;;;3.60;1.93;;;;;;;;;;5042222;27;88202;-58
2023/07/22 00:08:34;;;;;;;4.87;2.17;;;;;;;;;;5043258;27;87281;-58
2023/07/22 00:11:04;;;;;;;3.03;1.60;;;;;;;;;;5045861;27;87897;-58
2023/07/22 00:13:32;;;;;;;3.37;1.77;;;;;;;;;;5042639;28;89511;-58
2023/07/22 00:16:01;;;;;;;2.03;1.40;;;;;;;;;;5042420;28;87285;-57
2023/07/22 00:18:30;;;;;;;2.90;1.90;;;;;;;;;;5042768;28;87722;-57
2023/07/22 00:20:59;;;;;;;2.87;1.40;;;;;;;;;;5042843;28;87611;-57
2023/07/22 00:23:27;;;;;;;2.83;1.60;;;;;;;;;;5042498;28;90050;-58
2023/07/22 00:25:55;;;;;;;1.27;0.97;;;;;;;;;;5042515;28;87901;-58
2023/07/22 00:28:25;;;;;;;2.57;1.50;;;;;;;;;;5042714;28;87322;-58
2023/07/22 00:30:54;;;;;;;1.27;1.17;;;;;;;;;;5042642;28;87690;-58
2023/07/22 00:33:23;;;;;;;2.53;1.60;;;;;;;;;;5042603;28;89780;-58
2023/07/22 00:35:51;;;;;;;2.53;1.30;;;;;;;;;;5042098;28;87974;-58
2023/07/22 00:38:20;;;;;;;2.17;1.40;;;;;;;;;;5042593;28;87351;-57
2023/07/22 00:40:48;;;;;;;1.73;1.10;;;;;;;;;;5042128;27;87735;-58
2023/07/22 00:43:17;;;;;;;2.93;1.57;;;;;;;;;;5041780;28;87266;-58
2023/07/22 00:45:47;;;;;;;1.63;1.10;;;;;;;;;;5042365;27;89058;-58
2023/07/22 00:48:15;;;;;;;2.63;1.43;;;;;;;;;;5042483;28;87339;-58
2023/07/22 00:50:44;;;;;;;2.33;1.33;;;;;;;;;;5042395;28;87631;-58
2023/07/22 00:53:12;;;;;;;2.07;1.13;;;;;;;;;;5042172;28;88831;-58
2023/07/22 00:55:41;;;;;;;2.80;1.23;;;;;;;;;;5041982;28;89027;-58
2023/07/22 00:58:09;;;;;;;2.50;1.30;;;;;;;;;;5042678;28;87309;-58
2023/07/22 01:00:38;;;;;;;1.33;1.23;;;;;;;;;;5041875;28;87686;-57
2023/07/22 01:03:08;;;;;;;1.20;1.10;;;;;;;;;;5041762;28;88782;-58
2023/07/22 01:05:37;;;;;;;1.47;1.33;;;;;;;;;;5042043;28;89202;-57
2023/07/22 01:08:06;;;;;;;1.97;1.23;;;;;;;;;;5057545;27;87449;-58
2023/07/22 01:10:35;;;;;;;2.00;1.50;;;;;;;;;;5059196;27;87689;-58
2023/07/22 01:13:04;;;;;;;3.90;1.67;;;;;;;;;;5059183;27;89624;-57
2023/07/22 01:15:32;;;;;;;3.40;1.90;;;;;;;;;;5059370;27;89386;-56
2023/07/22 01:18:01;;;;;;;2.33;1.73;;;;;;;;;;5063910;27;87489;-58
2023/07/22 01:20:31;;;;;;;2.77;1.73;;;;;;;;;;5063126;27;87676;-57
2023/07/22 01:23:01;;;;;;;3.07;2.13;;;;;;;;;;5062924;27;88660;-58
2023/07/22 01:25:30;;;;;;;3.00;2.13;;;;;;;;;;5062683;27;89352;-58
2023/07/22 01:27:58;;;;;;;2.97;1.83;;;;;;;;;;5062888;27;87466;-58
2023/07/22 01:30:27;;;;;;;2.53;1.90;;;;;;;;;;5062643;27;88053;-58
2023/07/22 01:32:56;;;;;;;4.13;2.20;;;;;;;;;;5062487;27;88540;-58
2023/07/22 01:35:26;;;;;;;3.60;2.80;;;;;;;;;;5062582;27;87633;-57
2023/07/22 01:37:54;;;;;;;4.83;2.90;;;;;;;;;;5063126;27;88072;-57
2023/07/22 01:40:25;;;;;;;5.83;3.50;;;;;;;;;;5062814;27;87495;-55
2023/07/22 01:42:54;;;;;;;4.90;2.70;;;;;;;;;;5061789;27;89673;-57
2023/07/22 01:45:23;;;;;;;3.27;2.90;;;;;;;;;;5062353;27;88550;-57
2023/07/22 01:47:51;;;;;;;4.37;2.90;;;;;;;;;;5062836;27;87593;-57
2023/07/22 01:50:23;;;;;;;4.60;3.17;;;;;;;;;;5062587;27;87561;-57
2023/07/22 01:52:51;;;;;;;3.97;2.80;;;;;;;;;;5062185;27;90082;-57
2023/07/22 01:55:20;;;;;;;4.03;2.70;;;;;;;;;;5061581;27;87778;-57
2023/07/22 01:57:50;;;;;;;5.37;3.07;;;;;;;;;;5062346;27;87501;-57
2023/07/22 02:00:20;;;;;;;8.70;4.03;;;;;;;;;;5061803;27;87512;-57
2023/07/22 02:02:48;;;;;;;3.53;3.23;;;;;;;;;;5062391;27;88214;-58
2023/07/22 02:05:18;;;;;;;8.07;3.67;;;;;;;;;;5062119;27;88199;-57
2023/07/22 02:07:46;;;;;;;5.43;3.87;;;;;;;;;;5061646;27;87594;-57
2023/07/22 02:10:14;;;;;;;3.63;2.93;;;;;;;;;;5062412;27;88291;-57
2023/07/22 02:12:44;;;;;;;3.60;3.03;;;;;;;;;;5061997;27;87530;-57
2023/07/22 02:15:13;;;;;;;5.97;3.60;;;;;;;;;;5061912;27;88041;-57
2023/07/22 02:17:42;;;;;;;5.47;3.00;;;;;;;;;;5062132;27;87500;-57
2023/07/22 02:20:11;;;;;;;4.13;2.70;;;;;;;;;;5061830;27;87711;-57
2023/07/22 02:22:39;;;;;;;7.30;3.30;;;;;;;;;;5061561;27;89638;-57
2023/07/22 02:25:10;;;;;;;4.40;2.83;;;;;;;;;;5062268;27;88233;-58
2023/07/22 02:27:40;;;;;;;4.47;3.00;;;;;;;;;;5061538;27;87291;-57
2023/07/22 02:30:11;;;;;;;4.63;3.30;;;;;;;;;;5061945;27;88274;-57
2023/07/22 02:32:41;;;;;;;4.33;3.00;;;;;;;;;;5061708;27;90813;-57
2023/07/22 02:35:10;;;;;;;4.00;2.67;;;;;;;;;;5061692;27;89171;-57
2023/07/22 02:37:38;;;;;;;6.07;2.77;;;;;;;;;;5061610;27;87518;-57
2023/07/22 02:40:10;;;;;;;3.60;2.47;;;;;;;;;;5061812;27;87510;-57
2023/07/22 02:42:39;;;;;;;7.47;2.67;;;;;;;;;;5061027;27;88944;-57
2023/07/22 02:45:08;;;;;;;4.40;2.20;;;;;;;;;;5060939;27;88425;-57
2023/07/22 02:47:41;;;;;;;5.10;2.80;;;;;;;;;;5061684;27;87275;-57
2023/07/22 02:50:10;;;;;;;3.13;2.73;;;;;;;;;;5062109;27;87497;-57
2023/07/22 02:52:39;;;;;;;4.50;2.73;;;;;;;;;;5061284;27;88472;-57
2023/07/22 02:55:10;;;;;;;3.57;2.23;;;;;;;;;;5061096;27;91734;-57
2023/07/22 02:57:39;;;;;;;4.03;2.50;;;;;;;;;;5061228;27;87454;-57
2023/07/22 03:00:08;;;;;;;2.90;2.27;;;;;;;;;;5061055;27;87750;-57
2023/07/22 03:02:36;;;;;;;2.57;2.10;;;;;;;;;;5061482;27;89323;-57
2023/07/22 03:05:07;;;;;;;4.17;2.30;;;;;;;;;;5061290;27;88997;-57
2023/07/22 03:07:36;;;;;;;4.20;2.23;;;;;;;;;;5060735;27;87490;-57
2023/07/22 03:10:05;;;;;;;2.77;2.33;;;;;;;;;;5060948;27;87326;-57
2023/07/22 03:12:33;;;;;;;3.10;2.10;;;;;;;;;;5060863;27;87647;-57
2023/07/22 03:15:03;;;;;;;3.67;1.77;;;;;;;;;;5060937;27;89045;-57
2023/07/22 03:17:31;;;;;;;4.30;2.40;;;;;;;;;;5061315;27;87565;-57
2023/07/22 03:20:00;;;;;;;2.30;1.43;;;;;;;;;;5060908;27;87631;-57
2023/07/22 03:22:31;;;;;;;2.53;2.00;;;;;;;;;;5060714;27;88599;-57
2023/07/22 03:24:59;;;;;;;3.27;1.90;;;;;;;;;;5060608;27;87916;-57
2023/07/22 03:27:28;;;;;;;2.30;1.80;;;;;;;;;;5061172;27;87474;-57
2023/07/22 03:29:56;;;;;;;1.70;1.53;;;;;;;;;;5060616;27;87687;-57
2023/07/22 03:32:25;;;;;;;5.03;2.23;;;;;;;;;;5060742;27;88012;-57
2023/07/22 03:34:53;;;;;;;1.63;1.40;;;;;;;;;;5060098;27;88511;-57
2023/07/22 03:37:22;;;;;;;2.97;1.90;;;;;;;;;;5060686;27;88042;-57
2023/07/22 03:39:52;;;;;;;1.77;1.50;;;;;;;;;;5059676;27;87556;-57
2023/07/22 03:42:20;;;;;;;2.13;1.90;;;;;;;;;;5060156;27;89107;-57
2023/07/22 03:44:49;;;;;;;2.73;1.50;;;;;;;;;;5060623;27;88018;-58
2023/07/22 03:47:17;;;;;;;2.77;1.67;;;;;;;;;;5052125;27;87539;-57
2023/07/22 03:49:45;;;;;;;2.00;1.83;;;;;;;;;;5039791;27;88802;-57
2023/07/22 03:52:18;;;;;;;4.10;2.10;;;;;;;;;;5040239;27;88771;-57
2023/07/22 03:54:46;;;;;;;3.47;2.13;;;;;;;;;;5039927;27;88187;-57
2023/07/22 03:57:16;;;;;;;2.43;1.80;;;;;;;;;;5040309;27;87506;-57
2023/07/22 03:59:45;;;;;;;3.73;2.20;;;;;;;;;;5039645;27;87679;-57
2023/07/22 04:02:13;;;;;;;2.90;2.27;;;;;;;;;;5039787;28;89468;-57
2023/07/22 04:04:41;;;;;;;4.20;2.60;;;;;;;;;;5039690;27;88966;-57
2023/07/22 04:07:10;;;;;;;3.67;2.23;;;;;;;;;;5040315;27;87999;-57
2023/07/22 04:09:39;;;;;;;2.07;1.80;;;;;;;;;;5040161;27;87651;-57
2023/07/22 04:12:07;;;;;;;3.27;2.40;;;;;;;;;;5039563;27;89815;-57
2023/07/22 04:14:37;;;;;;;4.90;2.30;;;;;;;;;;5039458;27;88357;-57
2023/07/22 04:17:06;;;;;;;2.63;2.13;;;;;;;;;;5040195;27;87571;-57
2023/07/22 04:19:35;;;;;;;5.33;2.40;;;;;;;;;;5039560;27;87627;-57
2023/07/22 04:22:04;;;;;;;3.77;2.60;;;;;;;;;;5039774;27;89806;-57
2023/07/22 04:24:32;;;;;;;4.27;2.30;;;;;;;;;;5039271;27;88161;-57
2023/07/22 04:27:01;;;;;;;3.33;2.30;;;;;;;;;;5039898;27;88097;-57
2023/07/22 04:29:30;;;;;;;3.53;2.27;;;;;;;;;;5039787;27;87616;-57
2023/07/22 04:32:00;;;;;;;3.43;2.30;;;;;;;;;;5039516;27;89702;-57
2023/07/22 04:34:30;;;;;;;2.90;2.03;;;;;;;;;;5039234;28;88166;-57
2023/07/22 04:36:58;;;;;;;3.10;2.40;;;;;;;;;;5039691;27;87885;-57
2023/07/22 04:39:27;;;;;;;3.57;2.63;;;;;;;;;;5039556;27;87706;-57
2023/07/22 04:41:56;;;;;;;3.93;2.03;;;;;;;;;;5038657;27;88468;-57
2023/07/22 04:44:24;;;;;;;3.97;2.63;;;;;;;;;;5039292;27;87456;-57
2023/07/22 04:46:54;;;;;;;4.07;2.23;;;;;;;;;;5039713;27;87509;-57
2023/07/22 04:49:24;;;;;;;3.20;2.30;;;;;;;;;;5039173;27;88314;-57
2023/07/22 04:51:52;;;;;;;5.07;2.87;;;;;;;;;;5038880;27;89110;-57
2023/07/22 04:54:20;;;;;;;4.03;2.67;;;;;;;;;;5038490;27;88039;-57
2023/07/22 04:56:49;;;;;;;3.40;2.17;;;;;;;;;;5039366;27;87531;-57
2023/07/22 04:59:18;;;;;;;4.33;2.27;;;;;;;;;;5039672;27;87547;-57
2023/07/22 05:01:48;;;;;;;6.60;2.67;;;;;;;;;;5038991;27;89263;-57
2023/07/22 05:04:16;;;;;;;3.20;2.47;;;;;;;;;;5038924;27;87987;-57
2023/07/22 05:06:46;;;;;;;3.77;2.20;;;;;;;;;;5040955;27;88606;-57
2023/07/22 05:09:15;;;;;;;3.13;1.83;;;;;;;;;;5059652;27;87653;-57
2023/07/22 05:11:43;;;;;;;4.50;2.43;;;;;;;;;;5059320;27;89574;-57
2023/07/22 05:14:11;;;;;;;5.13;2.73;;;;;;;;;;5058873;27;87848;-57
2023/07/22 05:16:40;;;;;;;4.40;3.20;;;;;;;;;;5058945;27;87544;-57
2023/07/22 05:19:08;;;;;;;4.70;2.67;;;;;;;;;;5059037;27;87543;-57
2023/07/22 05:21:37;;;;;;;3.47;2.63;;;;;;;;;;5059274;27;88459;-57
2023/07/22 05:24:07;;;;;;;6.00;2.17;;;;;;;;;;5059059;27;89000;-57
2023/07/22 05:26:35;;;;;;;3.93;2.57;;;;;;;;;;5059123;27;87387;-57
2023/07/22 05:29:04;;;;;;;4.90;2.07;;;;;;;;;;5059365;27;87841;-57
2023/07/22 05:31:32;;;;;;;5.20;2.80;;;;;;;;;;5058771;27;89372;-57
2023/07/22 05:34:01;;;;;;;4.87;2.90;;;;;;;;;;5058633;27;88686;-57
2023/07/22 05:36:29;;;;;;;3.47;2.67;;;;;;;;;;5059134;27;87422;-57
2023/07/22 05:38:58;;;;;;;3.30;2.40;;;;;;;;;;5059088;27;87435;-57
2023/07/22 05:41:28;;;;;;;7.63;3.10;;;;;;;;;;5059047;27;89252;-57
2023/07/22 05:43:57;;;;;;;5.03;2.33;;;;;;;;;;5058579;27;89101;-57
2023/07/22 05:46:25;;;;;;;5.60;2.73;;;;;;;;;;5058957;27;87553;-57
2023/07/22 05:48:54;;;;;;;3.73;3.03;;;;;;;;;;5059344;27;87671;-57
2023/07/22 05:51:23;;;;;;;5.57;2.87;;;;;;;;;;5058637;27;88560;-57
2023/07/22 05:53:51;;;;;;;5.33;2.90;;;;;;;;;;5058519;27;88040;-57
2023/07/22 05:56:19;;;;;;;5.63;3.30;;;;;;;;;;5058966;27;87719;-57
2023/07/22 05:58:49;;;;;;;5.93;3.07;;;;;;;;;;5058769;27;87680;-57
2023/07/22 06:01:18;;;;;;;7.43;3.63;;;;;;;;;;5058224;27;88105;-57
2023/07/22 06:03:46;;;;;;;7.40;4.30;;;;;;;;;;5060180;27;89152;-57
2023/07/22 06:06:15;;;;;;;5.10;3.50;;;;;;;;;;5062090;27;87575;-57
2023/07/22 06:08:44;;;;;;;5.67;3.43;;;;;;;;;;5062449;27;87654;-57
2023/07/22 06:11:12;;;;;;;5.93;3.83;;;;;;;;;;5062107;27;89778;-57
2023/07/22 06:13:40;;;;;;;7.17;5.00;;;;;;;;;;5061822;27;87987;-57
2023/07/22 06:16:15;;;;;;;5.40;3.47;;;;;;;;;;5061889;27;87499;-57
2023/07/22 06:18:44;;;;;;;4.97;3.50;;;;;;;;;;5062037;27;87609;-58
2023/07/22 06:21:13;;;;;;;7.10;3.67;;;;;;;;;;5061950;27;88526;-57
2023/07/22 06:23:41;;;;;;;6.13;4.20;;;;;;;;;;5061727;27;88044;-57
2023/07/22 06:26:09;;;;;;;4.93;4.03;;;;;;;;;;5061965;27;88098;-57
2023/07/22 06:28:38;;;;;;;7.13;3.17;;;;;;;;;;5061466;27;87654;-57
2023/07/22 06:31:07;;;;;;;4.50;3.57;;;;;;;;;;5061300;27;88514;-57
2023/07/22 06:33:37;;;;;;;7.73;3.93;;;;;;;;;;5061392;27;88075;-57
2023/07/22 06:36:06;;;;;;;8.40;3.90;;;;;;;;;;5062098;27;87503;-57
2023/07/22 06:38:34;;;;;;;6.77;3.63;;;;;;;;;;5061845;27;87701;-57
2023/07/22 06:41:03;;;;;;;6.00;3.63;;;;;;;;;;5061758;27;88508;-57
2023/07/22 06:43:31;;;;;;;4.87;3.60;;;;;;;;;;5060794;27;87503;-58
2023/07/22 06:46:00;;;;;;;6.83;3.67;;;;;;;;;;5061809;27;87279;-57
2023/07/22 06:48:29;;;;;;;7.07;3.93;;;;;;;;;;5061831;27;87831;-57
2023/07/22 06:50:59;;;;;;;4.97;3.60;;;;;;;;;;5061052;27;88537;-57
2023/07/22 06:53:27;;;;;;;4.80;3.53;;;;;;;;;;5061151;27;89016;-57
2023/07/22 06:55:56;;;;;;;7.63;3.67;;;;;;;;;;5061130;27;87588;-57
2023/07/22 06:58:27;;;;;;;6.43;4.20;;;;;;;;;;5061405;27;87758;-57
2023/07/22 07:00:55;;;;;;;5.70;3.70;;;;;;;;;;5061135;27;87548;-57
2023/07/22 07:03:24;;;;;;;5.13;3.37;;;;;;;;;;5061212;27;87980;-57
2023/07/22 07:05:56;;;;;;;9.07;3.43;;;;;;;;;;5061260;27;87457;-57
2023/07/22 07:08:25;;;;;;;5.63;3.90;;;;;;;;;;5061875;27;88270;-57
2023/07/22 07:10:54;;;;;;;4.43;3.30;;;;;;;;;;5061167;27;89728;-57
2023/07/22 07:13:24;;;;;;;5.50;3.57;;;;;;;;;;5060840;27;88986;-57
2023/07/22 07:15:52;;;;;;;3.50;2.87;;;;;;;;;;5060950;27;87434;-57
2023/07/22 07:18:21;;;;;;;6.20;3.20;;;;;;;;;;5061021;27;87954;-58
2023/07/22 07:20:50;;;;;;;4.97;3.57;;;;;;;;;;5060857;27;88567;-57
2023/07/22 07:23:19;;;;;;;5.87;3.33;;;;;;;;;;5060809;27;89035;-57
2023/07/22 07:25:49;;;;;;;5.53;3.27;;;;;;;;;;5061132;27;87532;-57
2023/07/22 07:28:18;;;;;;;5.23;3.30;;;;;;;;;;5061065;27;87505;-57
2023/07/22 07:30:46;;;;;;;3.67;3.03;;;;;;;;;;5060497;27;88551;-57
2023/07/22 07:33:15;;;;;;;6.03;3.03;;;;;;;;;;5060850;27;88615;-57
2023/07/22 07:35:47;;;;;;;4.60;2.97;;;;;;;;;;5061182;27;87995;-57
2023/07/22 07:38:15;;;;;;;3.23;2.20;;;;;;;;;;5061062;27;87639;-57
2023/07/22 07:40:44;;;;;;;6.47;2.40;;;;;;;;;;5060757;27;88519;-57
2023/07/22 07:43:15;;;;;;;6.30;2.53;;;;;;;;;;5059367;27;88887;-57
2023/07/22 07:45:43;;;;;;;5.53;2.87;;;;;;;;;;5060910;27;87421;-57
2023/07/22 07:48:12;;;;;;;5.53;3.03;;;;;;;;;;5060818;27;87406;-57
2023/07/22 07:50:40;;;;;;;5.77;2.90;;;;;;;;;;5060399;27;89717;-57
2023/07/22 07:53:09;;;;;;;4.27;2.90;;;;;;;;;;5060396;27;88327;-57
2023/07/22 07:55:38;;;;;;;4.73;2.93;;;;;;;;;;5059919;27;87644;-57
2023/07/22 07:58:06;;;;;;;3.33;2.30;;;;;;;;;;5060519;27;87639;-57
2023/07/22 08:00:36;;;;;;;3.03;2.73;;;;;;;;;;5060070;27;87990;-57
2023/07/22 08:03:05;;;;;;;4.47;2.40;;;;;;;;;;5060349;27;89041;-57
2023/07/22 08:05:33;;;;;;;3.07;2.77;;;;;;;;;;5060210;27;87351;-57
2023/07/22 08:08:02;;;;;;;6.40;3.10;;;;;;;;;;5059643;27;87702;-58
2023/07/22 08:10:31;;;;;;;4.13;2.80;;;;;;;;;;5059864;27;89666;-57
2023/07/22 08:12:59;;;;;;;5.20;2.27;;;;;;;;;;5059975;27;87989;-57
2023/07/22 08:15:29;;;;;;;3.17;2.10;;;;;;;;;;5060082;27;87458;-57
2023/07/22 08:17:59;;;;;;;3.53;2.33;;;;;;;;;;5060104;27;87669;-57
2023/07/22 08:20:27;;;;;;;3.60;2.60;;;;;;;;;;5059882;27;88738;-57
2023/07/22 08:22:56;;;;;;;4.57;2.60;;;;;;;;;;5059868;27;88483;-57
2023/07/22 08:25:24;;;;;;;3.90;2.70;;;;;;;;;;5059397;27;87533;-57
2023/07/22 08:27:53;;;;;;;2.80;2.00;;;;;;;;;;5059966;27;87649;-57
2023/07/22 08:30:21;;;;;;;2.87;2.17;;;;;;;;;;5059583;27;88534;-57
2023/07/22 08:32:50;;;;;;;4.17;2.90;;;;;;;;;;5059525;27;88791;-57
2023/07/22 08:35:22;;;;;;;6.10;2.60;;;;;;;;;;5059609;27;87598;-57
2023/07/22 08:37:50;;;;;;;2.93;2.33;;;;;;;;;;5059914;27;87560;-57
2023/07/22 08:40:19;;;;;;;3.50;2.13;;;;;;;;;;5059346;27;89584;-57
2023/07/22 08:42:47;;;;;;;3.07;2.23;;;;;;;;;;5059004;27;89429;-57
2023/07/22 08:45:16;;;;;;;3.27;2.43;;;;;;;;;;5059925;27;87501;-57
2023/07/22 08:47:46;;;;;;;2.60;1.60;;;;;;;;;;5059553;27;87749;-57
2023/07/22 08:50:16;;;;;;;1.83;1.60;;;;;;;;;;5059877;27;88203;-57
2023/07/22 08:52:46;;;;;;;3.13;1.97;;;;;;;;;;5059381;27;87853;-57
2023/07/22 08:55:14;;;;;;;4.70;2.20;;;;;;;;;;5059085;27;87458;-57
2023/07/22 08:57:42;;;;;;;2.13;1.93;;;;;;;;;;5059340;27;87515;-57
2023/07/22 09:00:11;;;;;;;4.60;2.07;;;;;;;;;;5058819;27;89805;-57
2023/07/22 09:02:41;;;;;;;2.33;1.30;;;;;;;;;;5059367;27;87990;-57
2023/07/22 09:05:10;;;;;;;2.03;1.53;;;;;;;;;;5059663;27;87495;-57
2023/07/22 09:07:39;;;;;;;2.03;1.73;;;;;;;;;;5059352;27;87414;-58
2023/07/22 09:10:09;;;;;;;4.40;1.60;;;;;;;;;;5058910;27;88337;-57
2023/07/22 09:12:40;;;;;;;2.50;1.77;;;;;;;;;;5058815;27;87991;-58
2023/07/22 09:15:10;;;;;;;2.37;1.40;;;;;;;;;;5059166;27;87403;-57
2023/07/22 09:17:38;;;;;;;1.70;1.37;;;;;;;;;;5037868;27;87738;-57
2023/07/22 09:20:07;;;;;;;3.43;1.90;;;;;;;;;;5038384;27;87540;-57
2023/07/22 09:22:36;;;;;;;2.00;1.57;;;;;;;;;;5038272;27;89178;-57
2023/07/22 09:25:15;;;;;;;1.23;1.00;;;;;;;;;;5038370;28;87361;-57
2023/07/22 09:27:44;;;;;;;1.57;1.00;;;;;;;;;;5039115;28;88197;-57
2023/07/22 09:30:22;;;;;;;1.50;1.20;;;;;;;;;;5038291;28;88528;-57
2023/07/22 09:32:50;;;;;;;3.63;2.00;;;;;;;;;;5038517;28;89207;-58
2023/07/22 09:35:19;;;;;;;1.87;1.37;;;;;;;;;;5038489;28;87575;-57
2023/07/22 09:37:47;;;;;;;1.37;1.20;;;;;;;;;;5040383;28;87651;-57
2023/07/22 09:40:18;;;;;;;1.80;1.43;;;;;;;;;;5042507;27;89359;-57
2023/07/22 09:42:48;;;;;;;1.30;1.00;;;;;;;;;;5041548;28;88207;-57
2023/07/22 09:45:16;;;;;;;1.00;0.90;;;;;;;;;;5042266;27;87814;-57
2023/07/22 09:47:45;;;;;;;1.27;0.87;;;;;;;;;;5042235;28;88049;-57
2023/07/22 09:50:15;;;;;;;1.73;1.27;;;;;;;;;;5041750;28;88823;-58
2023/07/22 09:52:48;;;;;;;0.97;0.87;;;;;;;;;;5041800;28;88991;-57
2023/07/22 09:55:19;;;;;;;1.57;1.27;;;;;;;;;;5041775;28;87255;-57
2023/07/22 09:57:47;;;;;;;1.10;1.00;;;;;;;;;;5042144;28;87814;-57
2023/07/22 10:00:16;;;;;;;0.80;0.73;;;;;;;;;;5041479;28;89725;-57
2023/07/22 10:02:45;;;;;;;1.87;1.17;;;;;;;;;;5041762;28;87680;-57
2023/07/22 10:05:15;;;;;;;3.63;1.43;;;;;;;;;;5041882;28;87555;-57
2023/07/22 10:07:45;;;;;;;1.13;1.03;;;;;;;;;;5041509;28;87971;-57
2023/07/22 10:10:14;;;;;;;1.53;1.07;;;;;;;;;;5041541;28;89688;-57
2023/07/22 10:12:44;;;;;;;3.27;1.00;;;;;;;;;;5041181;28;87984;-57
2023/07/22 10:15:13;;;;;;;2.53;1.80;;;;;;;;;;5041326;28;87610;-57
2023/07/22 10:17:42;;;;;;;1.47;1.23;;;;;;;;;;5041854;28;87678;-57
2023/07/22 10:20:14;;;;;;;2.70;1.30;;;;;;;;;;5041215;27;87528;-61
2023/07/22 10:22:44;;;;;;;1.73;0.90;;;;;;;;;;5041385;28;88283;-57
2023/07/22 10:25:13;;;;;;;1.17;0.90;;;;;;;;;;5041598;28;87325;-57
2023/07/22 10:27:41;;;;;;;1.27;0.90;;;;;;;;;;5041125;28;87682;-57
2023/07/22 10:30:12;;;;;;;2.10;1.07;;;;;;;;;;5041346;28;89338;-57
2023/07/22 10:32:42;;;;;;;1.27;0.97;;;;;;;;;;5041460;28;89158;-57
2023/07/22 10:35:14;;;;;;;1.33;1.03;;;;;;;;;;5041222;28;87480;-58
2023/07/22 10:37:42;;;;;;;1.20;0.97;;;;;;;;;;5041251;27;87607;-57
2023/07/22 10:40:21;;;;;;;0.80;0.70;;;;;;;;;;5040841;28;88534;-57
2023/07/22 10:42:53;;;;;;;1.90;1.20;;;;;;;;;;5040858;28;88055;-57
2023/07/22 10:45:28;;;;;;;2.13;1.30;;;;;;;;;;5041234;28;87506;-58
2023/07/22 10:48:04;;;;;;;1.10;0.90;;;;;;;;;;5041634;28;87441;-58
2023/07/22 10:50:42;;;;;;;0.57;0.57;;;;;;;;;;5040056;28;88302;-57
2023/07/22 10:53:14;;;;;;;1.87;1.00;;;;;;;;;;5041172;27;87838;-58
2023/07/22 10:56:01;;;;;;;0.83;0.67;;;;;;;;;;5041050;28;87508;-57
2023/07/22 10:58:30;;;;;;;1.00;0.80;;;;;;;;;;5041186;28;88200;-57
2023/07/22 11:01:06;;;;;;;1.10;0.90;;;;;;;;;;5039888;28;89610;-57
2023/07/22 11:03:34;;;;;;;1.00;0.80;;;;;;;;;;5040426;27;89126;-57
2023/07/22 11:06:03;;;;;;;0.80;0.80;;;;;;;;;;5040231;28;87563;-57
2023/07/22 11:08:38;;;;;;;1.13;0.77;;;;;;;;;;5040956;28;87677;-57
2023/07/22 11:11:06;;;;;;;0.70;0.70;;;;;;;;;;5040788;28;89707;-57
2023/07/22 11:13:36;;;;;;;0.97;0.80;;;;;;;;;;5040703;28;89027;-59
2023/07/22 11:16:06;;;;;;;1.10;1.00;;;;;;;;;;5040856;27;87429;-56
2023/07/22 11:18:38;;;;;;;3.80;1.40;;;;;;;;;;5040327;27;87761;-57
2023/07/22 11:21:10;;;;;;;2.37;1.10;;;;;;;;;;5040708;28;89662;-57
2023/07/22 11:23:39;;;;;;;1.73;1.00;;;;;;;;;;5040649;28;88976;-57
2023/07/22 11:26:07;;;;;;;1.73;1.03;;;;;;;;;;5040384;28;87554;-57
2023/07/22 11:28:35;;;;;;;1.73;0.90;;;;;;;;;;5040517;28;87634;-56
2023/07/22 11:31:05;;;;;;;1.27;0.83;;;;;;;;;;5040236;28;87450;-57
2023/07/22 11:33:40;;;;;;;1.87;1.30;;;;;;;;;;5040182;28;87923;-56
2023/07/22 11:36:09;;;;;;;4.57;1.40;;;;;;;;;;5040858;28;87368;-56
2023/07/22 11:38:38;;;;;;;2.00;1.00;;;;;;;;;;5040418;28;87488;-56
2023/07/22 11:41:07;;;;;;;2.07;1.20;;;;;;;;;;5040324;27;88352;-57
2023/07/22 11:43:36;;;;;;;1.67;1.20;;;;;;;;;;5039627;28;88948;-56
2023/07/22 11:46:06;;;;;;;3.07;0.97;;;;;;;;;;5040687;28;88041;-55
2023/07/22 11:48:35;;;;;;;0.77;0.77;;;;;;;;;;5040075;28;87397;-55
2023/07/22 11:51:05;;;;;;;0.70;0.70;;;;;;;;;;5039819;28;88635;-55
2023/07/22 11:53:34;;;;;;;1.60;1.00;;;;;;;;;;5039978;27;87921;-55
2023/07/22 11:56:02;;;;;;;2.03;0.67;;;;;;;;;;5040040;28;87516;-55
2023/07/22 11:58:31;;;;;;;1.23;0.77;;;;;;;;;;5040265;27;87302;-56
2023/07/22 12:01:05;;;;;;;2.17;0.67;;;;;;;;;;5038388;28;89414;-56
2023/07/22 12:03:34;;;;;;;0.90;0.70;;;;;;;;;;5039716;28;87684;-56
2023/07/22 12:06:05;;;;;;;1.03;0.60;;;;;;;;;;5039789;27;87484;-55
2023/07/22 12:08:34;;;;;;;0.93;0.57;;;;;;;;;;5040342;28;87525;-56
2023/07/22 12:11:03;;;;;;;0.70;0.30;;;;;;;;;;5040222;27;88497;-56
2023/07/22 12:13:37;;;;;;;0.70;0.40;;;;;;;;;;5039753;28;88057;-57
2023/07/22 12:16:06;;;;;;;2.83;0.67;;;;;;;;;;5039926;28;87582;-57
2023/07/22 12:18:44;;;;;;;1.63;0.83;;;;;;;;;;5039221;27;87861;-56
2023/07/22 12:21:14;;;;;;;0.53;0.50;;;;;;;;;;5039499;28;88701;-57
2023/07/22 12:23:43;;;;;;;0.87;0.77;;;;;;;;;;5052850;27;87916;-56
2023/07/22 12:26:11;;;;;;;1.13;0.50;;;;;;;;;;5060146;27;87477;-56
2023/07/22 12:28:40;;;;;;;1.07;0.90;;;;;;;;;;5058548;27;87643;-57
2023/07/22 12:31:09;;;;;;;1.57;0.70;;;;;;;;;;5049450;27;90223;-57
2023/07/22 12:33:38;;;;;;;3.00;1.03;;;;;;;;;;5053811;27;88382;-57
2023/07/22 12:36:06;;;;;;;1.40;1.00;;;;;;;;;;5060043;27;89534;-57
2023/07/22 12:38:36;;;;;;;2.90;0.90;;;;;;;;;;5042473;27;89703;-57
2023/07/22 12:41:05;;;;;;;0.67;0.67;;;;;;;;;;5043948;27;89599;-57
2023/07/22 12:43:33;;;;;;;7.47;1.47;;;;;;;;;;5056074;27;88123;-57
2023/07/22 12:46:02;;;;;;;1.33;0.97;;;;;;;;;;5056992;27;87699;-57
2023/07/22 12:48:30;;;;;;;0.97;0.87;;;;;;;;;;5051058;27;87692;-57
2023/07/22 12:50:59;;;;;;;5.07;1.40;;;;;;;;;;5059114;27;88416;-57
2023/07/22 12:53:27;;;;;;;2.57;1.53;;;;;;;;;;5058317;27;88317;-57
2023/07/22 12:56:03;;;;;;;7.10;1.73;;;;;;;;;;5067132;27;88140;-58
2023/07/22 12:58:31;;;;;;;3.60;1.43;;;;;;;;;;5055939;27;87505;-56
2023/07/22 13:01:00;;;;;;;3.03;1.03;;;;;;;;;;5052735;27;89647;-56
2023/07/22 13:03:28;;;;;;;2.30;1.57;;;;;;;;;;5046268;27;89273;-56
2023/07/22 13:05:57;;;;;;;4.20;1.83;;;;;;;;;;5039650;27;89192;-56
2023/07/22 13:08:25;;;;;;;1.90;1.33;;;;;;;;;;5057373;27;88230;-56
2023/07/22 13:10:54;;;;;;;2.17;1.63;;;;;;;;;;5058934;27;88361;-56
2023/07/22 13:13:24;;;;;;;3.07;1.53;;;;;;;;;;5059092;27;87663;-56
2023/07/22 13:15:52;;;;;;;6.30;1.23;;;;;;;;;;5059350;27;87495;-56
2023/07/22 13:18:21;;;;;;;6.97;2.33;;;;;;;;;;5059357;27;87848;-56
2023/07/22 13:20:50;;;;;;;6.80;1.80;;;;;;;;;;5059015;27;88658;-56
2023/07/22 13:23:19;;;;;;;3.40;1.40;;;;;;;;;;5059341;27;88055;-57
2023/07/22 13:25:47;;;;;;;4.23;2.00;;;;;;;;;;5059577;27;87365;-56
2023/07/22 13:28:16;;;;;;;3.67;1.33;;;;;;;;;;5059299;27;87580;-56
2023/07/22 13:30:46;;;;;;;6.00;1.70;;;;;;;;;;5058556;27;88144;-56
2023/07/22 13:33:14;;;;;;;7.27;1.77;;;;;;;;;;5054564;27;88523;-56
2023/07/22 13:35:43;;;;;;;2.63;1.70;;;;;;;;;;5062012;27;87410;-56
2023/07/22 13:38:11;;;;;;;6.57;1.90;;;;;;;;;;5062334;27;87364;-55
2023/07/22 13:40:40;;;;;;;8.93;2.17;;;;;;;;;;5061490;27;89748;-56
2023/07/22 13:43:09;;;;;;;2.93;1.60;;;;;;;;;;5061280;27;87551;-57
2023/07/22 13:45:38;;;;;;;7.20;2.20;;;;;;;;;;5061548;27;88148;-57
2023/07/22 13:48:08;;;;;;;3.53;2.30;;;;;;;;;;5062140;27;87677;-56
2023/07/22 13:50:36;;;;;;;2.77;1.77;;;;;;;;;;5061883;27;90494;-56
2023/07/22 13:53:07;;;;;;;3.67;1.70;;;;;;;;;;5061739;27;89212;-56
2023/07/22 13:55:36;;;;;;;3.37;2.33;;;;;;;;;;5061766;27;87288;-56
2023/07/22 13:58:04;;;;;;;2.67;1.83;;;;;;;;;;5061376;27;87673;-56
2023/07/22 14:00:33;;;;;;;3.33;2.10;;;;;;;;;;5060977;27;88361;-56
2023/07/22 14:03:01;;;;;;;3.23;1.80;;;;;;;;;;5061664;27;88905;-56
2023/07/22 14:05:31;;;;;;;2.77;1.60;;;;;;;;;;5061722;27;87325;-56
2023/07/22 14:08:00;;;;;;;2.17;1.77;;;;;;;;;;5062073;27;87610;-56
2023/07/22 14:10:28;;;;;;;2.13;1.57;;;;;;;;;;5061645;27;88325;-56
2023/07/22 14:12:57;;;;;;;6.23;1.97;;;;;;;;;;5060795;27;89040;-56
2023/07/22 14:15:25;;;;;;;5.83;1.70;;;;;;;;;;5061585;27;87281;-56
2023/07/22 14:17:53;;;;;;;2.70;1.97;;;;;;;;;;5061661;27;87188;-56
2023/07/22 14:20:22;;;;;;;2.90;1.93;;;;;;;;;;5061243;27;89708;-56
2023/07/22 14:22:52;;;;;;;3.03;1.77;;;;;;;;;;5061124;27;89555;-56
2023/07/22 14:25:21;;;;;;;5.87;1.37;;;;;;;;;;5064347;27;87222;-56
2023/07/22 14:27:50;;;;;;;3.63;1.80;;;;;;;;;;5064820;27;87645;-56
2023/07/22 14:30:19;;;;;;;3.00;1.60;;;;;;;;;;5064751;27;88590;-56
2023/07/22 14:32:47;;;;;;;2.63;1.43;;;;;;;;;;5064529;27;88023;-56
2023/07/22 14:35:16;;;;;;;3.00;1.77;;;;;;;;;;5064671;27;87309;-56
2023/07/22 14:37:45;;;;;;;1.87;1.63;;;;;;;;;;5064727;27;87621;-56
2023/07/22 14:40:16;;;;;;;1.87;1.40;;;;;;;;;;5064747;27;89681;-56
2023/07/22 14:42:44;;;;;;;1.73;1.50;;;;;;;;;;5063794;27;89453;-56
2023/07/22 14:45:13;;;;;;;2.30;1.60;;;;;;;;;;5064931;27;87359;-56
2023/07/22 14:47:41;;;;;;;3.10;1.50;;;;;;;;;;5064500;27;87623;-56
2023/07/22 14:50:10;;;;;;;3.57;1.80;;;;;;;;;;5064053;27;88603;-56
2023/07/22 14:52:39;;;;;;;3.57;1.43;;;;;;;;;;5064389;27;87473;-57
2023/07/22 14:55:08;;;;;;;2.70;1.70;;;;;;;;;;5064543;27;87380;-56